Time;durP1;ratioP1;P1;durP2;ratioP2;P2;SDS_P1;SDS_P2;PMS_P1;PMS_P2;Temp;Humidity;BMP_temperature;BMP_pressure;BME280_temperature;BME280_humidity;BME280_pressure;Samples;Min_cycle;Max_cycle;Signal;HPM_P1;HPM_P2
2023/03/09 00:00:50;;;;;;;;;;;2.30;99.90;;;;;;4938119;29;988;-59
2023/03/09 00:03:16;;;;;;;;;;;2.20;99.90;;;;;;4936846;29;1008;-61
2023/03/09 00:05:43;;;;;;;;;;;2.20;99.90;;;;;;4941722;29;1180;-61
2023/03/09 00:08:10;;;;;;;;;;;2.20;99.90;;;;;;4955575;29;808;-61
2023/03/09 00:10:40;;;;;;;;;;;2.20;99.90;;;;;;4956370;29;832;-60
2023/03/09 00:13:06;;;;;;;;;;;2.20;99.90;;;;;;4955768;29;1062;-59
2023/03/09 00:15:32;;;;;;;;;;;2.20;99.90;;;;;;4953360;29;1902;-59
2023/03/09 00:17:59;;;;;;;;;;;2.20;99.90;;;;;;4937157;29;1155;-62
2023/03/09 00:20:25;;;;;;;;;;;2.10;99.90;;;;;;4937496;29;984;-61
2023/03/09 00:22:52;;;;;;;;;;;2.10;99.90;;;;;;4937180;29;1007;-61
2023/03/09 00:25:20;;;;;;;;;;;2.00;99.90;;;;;;4936529;29;1147;-61
2023/03/09 00:27:47;;;;;;;;;;;2.00;99.90;;;;;;4956027;28;979;-59
2023/03/09 00:30:14;;;;;;;;;;;2.00;99.90;;;;;;4956390;29;1035;-61
2023/03/09 00:32:41;;;;;;;;;;;2.00;99.90;;;;;;4955841;28;1058;-60
2023/03/09 00:35:08;;;;;;;;;;;2.00;99.90;;;;;;4956313;29;999;-60
2023/03/09 00:37:34;;;;;;;;;;;2.00;99.90;;;;;;4954961;29;1972;-58
2023/03/09 00:40:01;;;;;;;;;;;1.90;99.90;;;;;;4956114;29;968;-62
2023/03/09 00:42:27;;;;;;;;;;;2.00;99.90;;;;;;4956237;29;1054;-62
2023/03/09 00:44:53;;;;;;;;;;;1.90;99.90;;;;;;4955913;29;1003;-60
2023/03/09 00:47:19;;;;;;;;;;;2.00;99.90;;;;;;4938878;29;1179;-61
2023/03/09 00:49:45;;;;;;;;;;;2.00;99.90;;;;;;4935906;29;1003;-59
2023/03/09 00:52:11;;;;;;;;;;;2.00;99.90;;;;;;4936922;29;994;-62
2023/03/09 00:54:37;;;;;;;;;;;1.90;99.90;;;;;;4936525;29;1099;-61
2023/03/09 00:57:04;;;;;;;;;;;1.90;99.90;;;;;;4950305;29;1942;-61
2023/03/09 00:59:30;;;;;;;;;;;1.90;99.90;;;;;;4955753;29;781;-62
2023/03/09 01:01:56;;;;;;;;;;;1.70;99.90;;;;;;4955581;29;1051;-61
2023/03/09 01:04:22;;;;;;;;;;;1.80;99.90;;;;;;4955653;29;1003;-60
2023/03/09 01:06:48;;;;;;;;;;;1.70;99.90;;;;;;4942848;28;1212;-61
2023/03/09 01:09:14;;;;;;;;;;;1.70;99.90;;;;;;4936613;29;813;-62
2023/03/09 01:11:41;;;;;;;;;;;1.80;99.90;;;;;;4936245;29;1160;-61
2023/03/09 01:14:07;;;;;;;;;;;1.70;99.90;;;;;;4936510;29;999;-62
2023/03/09 01:16:33;;;;;;;;;;;1.70;99.90;;;;;;4945817;29;1977;-61
2023/03/09 01:18:59;;;;;;;;;;;1.70;99.90;;;;;;4955599;29;996;-61
2023/03/09 01:21:25;;;;;;;;;;;1.50;99.90;;;;;;4955369;29;1169;-60
2023/03/09 01:23:51;;;;;;;;;;;1.50;99.90;;;;;;4955352;29;979;-61
2023/03/09 01:26:18;;;;;;;;;;;1.60;99.90;;;;;;4946516;29;1092;-60
2023/03/09 01:28:46;;;;;;;;;;;1.60;99.90;;;;;;4936212;29;947;-62
2023/03/09 01:31:13;;;;;;;;;;;1.60;99.90;;;;;;4935180;29;1527;-60
2023/03/09 01:33:39;;;;;;;;;;;1.60;99.90;;;;;;4935333;29;1039;-60
2023/03/09 01:36:07;;;;;;;;;;;1.60;99.90;;;;;;4941541;29;1903;-60
2023/03/09 01:38:33;;;;;;;;;;;1.50;99.90;;;;;;4955143;29;1007;-59
2023/03/09 01:40:59;;;;;;;;;;;1.60;99.90;;;;;;4954980;29;1062;-61
2023/03/09 01:43:34;;;;;;;;;;;1.60;99.90;;;;;;4954124;28;1003;-57
2023/03/09 01:46:12;;;;;;;;;;;1.60;99.90;;;;;;4948654;28;1270;-59
2023/03/09 01:48:38;;;;;;;;;;;1.60;99.90;;;;;;4935832;29;1058;-61
2023/03/09 01:51:05;;;;;;;;;;;1.50;99.90;;;;;;4935793;29;984;-59
2023/03/09 01:53:31;;;;;;;;;;;1.50;99.90;;;;;;4935734;29;797;-62
2023/03/09 01:56:00;;;;;;;;;;;1.40;99.90;;;;;;4940459;29;1966;-61
2023/03/09 01:58:28;;;;;;;;;;;1.50;99.90;;;;;;4954766;28;1026;-59
2023/03/09 02:00:55;;;;;;;;;;;1.50;99.90;;;;;;4954679;29;952;-59
2023/03/09 02:03:23;;;;;;;;;;;1.60;99.90;;;;;;4954277;29;1091;-62
2023/03/09 02:05:53;;;;;;;;;;;1.60;99.90;;;;;;4948706;29;1560;-59
2023/03/09 02:08:20;;;;;;;;;;;1.60;99.90;;;;;;4935694;29;1003;-62
2023/03/09 02:10:55;;;;;;;;;;;1.50;99.90;;;;;;4935065;29;1340;-61
2023/03/09 02:13:23;;;;;;;;;;;1.50;99.90;;;;;;4935457;29;912;-62
2023/03/09 02:15:50;;;;;;;;;;;1.50;99.90;;;;;;4935303;29;1964;-60
2023/03/09 02:18:16;;;;;;;;;;;1.40;99.90;;;;;;4935457;29;1059;-62
2023/03/09 02:20:50;;;;;;;;;;;1.50;99.90;;;;;;4935841;29;769;-61
2023/03/09 02:23:22;;;;;;;;;;;1.40;99.90;;;;;;4935605;29;972;-60
2023/03/09 02:25:54;;;;;;;;;;;1.50;99.90;;;;;;4938513;29;1133;-61
2023/03/09 02:28:21;;;;;;;;;;;1.50;99.90;;;;;;4954556;28;951;-61
2023/03/09 02:30:48;;;;;;;;;;;1.50;99.90;;;;;;4954175;29;983;-60
2023/03/09 02:33:25;;;;;;;;;;;1.50;99.90;;;;;;4954336;29;892;-61
2023/03/09 02:35:55;;;;;;;;;;;1.50;99.90;;;;;;4949465;28;1978;-62
2023/03/09 02:38:22;;;;;;;;;;;1.50;99.90;;;;;;4935331;29;984;-60
2023/03/09 02:40:49;;;;;;;;;;;1.60;99.90;;;;;;4935314;29;944;-61
2023/03/09 02:43:17;;;;;;;;;;;1.60;99.90;;;;;;4935353;29;988;-59
2023/03/09 02:45:43;;;;;;;;;;;1.50;99.90;;;;;;4937392;29;1144;-62
2023/03/09 02:48:09;;;;;;;;;;;1.60;99.90;;;;;;4954159;29;931;-61
2023/03/09 02:50:35;;;;;;;;;;;1.50;99.90;;;;;;4954212;29;1003;-61
2023/03/09 02:53:02;;;;;;;;;;;1.50;99.90;;;;;;4954086;29;1042;-61
2023/03/09 02:55:28;;;;;;;;;;;1.50;99.90;;;;;;4955822;28;1144;-60
2023/03/09 02:57:54;;;;;;;;;;;1.60;99.90;;;;;;4937818;29;1906;-60
2023/03/09 03:00:21;;;;;;;;;;;1.60;99.90;;;;;;4938803;29;1039;-62
2023/03/09 03:02:47;;;;;;;;;;;1.70;99.90;;;;;;4938739;29;1051;-62
2023/03/09 03:05:13;;;;;;;;;;;1.60;99.90;;;;;;4938879;29;976;-61
2023/03/09 03:07:40;;;;;;;;;;;1.50;99.90;;;;;;4956301;29;1231;-59
2023/03/09 03:10:06;;;;;;;;;;;1.50;99.90;;;;;;4957956;29;1007;-59
2023/03/09 03:12:32;;;;;;;;;;;1.60;99.90;;;;;;4957492;28;1383;-59
2023/03/09 03:14:58;;;;;;;;;;;1.60;99.90;;;;;;4957765;29;860;-60
2023/03/09 03:17:24;;;;;;;;;;;1.60;99.90;;;;;;4941228;29;1982;-62
2023/03/09 03:19:52;;;;;;;;;;;1.60;99.90;;;;;;4938642;29;734;-61
2023/03/09 03:22:18;;;;;;;;;;;1.50;99.90;;;;;;4938627;29;1011;-62
2023/03/09 03:24:44;;;;;;;;;;;1.50;99.90;;;;;;4938748;29;1019;-63
2023/03/09 03:27:10;;;;;;;;;;;1.60;99.90;;;;;;4952029;29;1230;-61
2023/03/09 03:29:37;;;;;;;;;;;1.60;99.90;;;;;;4957503;29;1055;-61
2023/03/09 03:32:03;;;;;;;;;;;1.50;99.90;;;;;;4957294;29;968;-62
2023/03/09 03:34:29;;;;;;;;;;;1.60;99.90;;;;;;4957306;28;964;-61
2023/03/09 03:36:55;;;;;;;;;;;1.50;99.90;;;;;;4944964;29;1914;-62
2023/03/09 03:39:22;;;;;;;;;;;1.50;99.90;;;;;;4938110;29;1038;-62
2023/03/09 03:41:48;;;;;;;;;;;1.60;99.90;;;;;;4938082;29;1058;-61
2023/03/09 03:44:14;;;;;;;;;;;1.50;99.90;;;;;;4937839;29;1059;-61
2023/03/09 03:46:40;;;;;;;;;;;1.60;99.90;;;;;;4947304;29;1164;-61
2023/03/09 03:49:06;;;;;;;;;;;1.60;99.90;;;;;;4957210;29;900;-61
2023/03/09 03:51:32;;;;;;;;;;;1.60;99.90;;;;;;4957563;29;991;-62
2023/03/09 03:53:59;;;;;;;;;;;1.60;99.90;;;;;;4956858;29;1191;-62
2023/03/09 03:56:25;;;;;;;;;;;1.50;99.90;;;;;;4948534;29;1974;-61
2023/03/09 03:58:51;;;;;;;;;;;1.60;99.90;;;;;;4937856;29;1011;-61
2023/03/09 04:01:17;;;;;;;;;;;1.60;99.90;;;;;;4937776;29;999;-61
2023/03/09 04:03:43;;;;;;;;;;;1.60;99.90;;;;;;4937799;29;1070;-61
2023/03/09 04:06:09;;;;;;;;;;;1.50;99.90;;;;;;4941907;29;1227;-61
2023/03/09 04:08:35;;;;;;;;;;;1.50;99.90;;;;;;4956827;29;1034;-61
2023/03/09 04:11:06;;;;;;;;;;;1.60;99.90;;;;;;4956798;29;1084;-60
2023/03/09 04:13:32;;;;;;;;;;;1.60;99.90;;;;;;4956782;29;1007;-61
2023/03/09 04:15:58;;;;;;;;;;;1.70;99.90;;;;;;4951711;29;1919;-62
2023/03/09 04:18:24;;;;;;;;;;;1.60;99.90;;;;;;4936480;29;697;-60
2023/03/09 04:20:50;;;;;;;;;;;1.50;99.90;;;;;;4937571;29;845;-62
2023/03/09 04:23:16;;;;;;;;;;;1.60;99.90;;;;;;4937236;29;1091;-58
2023/03/09 04:25:42;;;;;;;;;;;1.60;99.90;;;;;;4938948;29;1129;-61
2023/03/09 04:28:09;;;;;;;;;;;1.60;99.90;;;;;;4956479;29;1047;-62
2023/03/09 04:30:35;;;;;;;;;;;1.60;99.90;;;;;;4956165;29;999;-62
2023/03/09 04:33:01;;;;;;;;;;;1.50;99.90;;;;;;4956431;29;846;-61
2023/03/09 04:35:27;;;;;;;;;;;1.50;99.90;;;;;;4955663;29;1144;-62
2023/03/09 04:37:54;;;;;;;;;;;1.60;99.90;;;;;;4937322;29;1972;-62
2023/03/09 04:40:20;;;;;;;;;;;1.60;99.90;;;;;;4937398;29;1007;-59
2023/03/09 04:42:46;;;;;;;;;;;1.60;99.90;;;;;;4937541;29;1015;-61
2023/03/09 04:45:12;;;;;;;;;;;1.50;99.90;;;;;;4937103;29;734;-62
2023/03/09 04:47:39;;;;;;;;;;;1.50;99.90;;;;;;4953766;29;1164;-61
2023/03/09 04:50:05;;;;;;;;;;;1.50;99.90;;;;;;4955971;29;1050;-59
2023/03/09 04:52:31;;;;;;;;;;;1.40;99.90;;;;;;4956007;28;943;-63
2023/03/09 04:54:57;;;;;;;;;;;1.40;99.90;;;;;;4955917;29;1082;-61
2023/03/09 04:57:23;;;;;;;;;;;1.40;99.90;;;;;;4940048;29;1922;-60
2023/03/09 04:59:49;;;;;;;;;;;1.40;99.90;;;;;;4936768;29;995;-61
2023/03/09 05:02:16;;;;;;;;;;;1.30;99.90;;;;;;4936500;29;1158;-60
2023/03/09 05:04:42;;;;;;;;;;;1.40;99.90;;;;;;4936796;29;904;-62
2023/03/09 05:07:08;;;;;;;;;;;1.30;99.90;;;;;;4948669;29;1235;-62
2023/03/09 05:09:34;;;;;;;;;;;1.30;99.90;;;;;;4955436;28;1051;-62
2023/03/09 05:12:01;;;;;;;;;;;1.40;99.90;;;;;;4955391;29;1173;-61
2023/03/09 05:14:28;;;;;;;;;;;1.30;99.90;;;;;;4955595;29;980;-60
2023/03/09 05:16:54;;;;;;;;;;;1.40;99.90;;;;;;4944623;29;1973;-60
2023/03/09 05:19:20;;;;;;;;;;;1.40;99.90;;;;;;4936234;29;807;-60
2023/03/09 05:21:47;;;;;;;;;;;1.30;99.90;;;;;;4935993;29;1091;-61
2023/03/09 05:24:13;;;;;;;;;;;1.20;99.90;;;;;;4936152;29;896;-61
2023/03/09 05:26:39;;;;;;;;;;;1.20;99.90;;;;;;4944804;29;1137;-59
2023/03/09 05:29:05;;;;;;;;;;;1.20;99.90;;;;;;4955086;29;1110;-61
2023/03/09 05:31:31;;;;;;;;;;;1.10;99.90;;;;;;4954997;29;1058;-62
2023/03/09 05:33:58;;;;;;;;;;;1.20;99.90;;;;;;4955155;29;1031;-61
2023/03/09 05:36:25;;;;;;;;;;;1.30;99.90;;;;;;4947649;29;1935;-61
2023/03/09 05:38:51;;;;;;;;;;;1.40;99.90;;;;;;4935984;29;876;-61
2023/03/09 05:41:18;;;;;;;;;;;1.20;99.90;;;;;;4935988;29;801;-61
2023/03/09 05:43:45;;;;;;;;;;;1.40;99.90;;;;;;4936191;29;992;-62
2023/03/09 05:46:12;;;;;;;;;;;1.30;99.90;;;;;;4940198;29;1172;-62
2023/03/09 05:48:39;;;;;;;;;;;1.40;99.90;;;;;;4954995;29;916;-60
2023/03/09 05:51:05;;;;;;;;;;;1.40;99.90;;;;;;4954928;28;975;-60
2023/03/09 05:53:32;;;;;;;;;;;1.30;99.90;;;;;;4955029;29;995;-60
2023/03/09 05:55:58;;;;;;;;;;;1.30;99.90;;;;;;4950562;29;1397;-61
2023/03/09 05:58:24;;;;;;;;;;;1.40;99.90;;;;;;4951083;29;1976;-62
2023/03/09 06:00:52;;;;;;;;;;;1.30;99.90;;;;;;4943845;29;1382;-59
2023/03/09 06:03:19;;;;;;;;;;;1.40;99.90;;;;;;4945402;29;1359;-59
2023/03/09 06:05:46;;;;;;;;;;;1.40;99.90;;;;;;4942010;29;1265;-60
2023/03/09 06:08:13;;;;;;;;;;;1.40;99.90;;;;;;4936478;28;1288;-59
2023/03/09 06:10:39;;;;;;;;;;;1.50;99.90;;;;;;4940819;29;1756;-61
2023/03/09 06:13:05;;;;;;;;;;;1.40;99.90;;;;;;4955256;29;764;-60
2023/03/09 06:15:32;;;;;;;;;;;1.40;99.90;;;;;;4951460;29;1279;-62
2023/03/09 06:17:58;;;;;;;;;;;1.40;99.90;;;;;;4954637;28;1903;-60
2023/03/09 06:20:24;;;;;;;;;;;1.40;99.90;;;;;;4948560;29;1624;-61
2023/03/09 06:22:50;;;;;;;;;;;1.40;99.90;;;;;;4955272;29;978;-60
2023/03/09 06:25:16;;;;;;;;;;;1.40;99.90;;;;;;4954784;29;1186;-62
2023/03/09 06:27:42;;;;;;;;;;;1.40;99.90;;;;;;4953725;29;1324;-60
2023/03/09 06:30:09;;;;;;;;;;;1.40;99.90;;;;;;4936913;29;1252;-61
2023/03/09 06:32:35;;;;;;;;;;;1.40;99.90;;;;;;4941375;28;1608;-61
2023/03/09 06:35:02;;;;;;;;;;;1.50;99.90;;;;;;4935757;29;1205;-62
2023/03/09 06:37:28;;;;;;;;;;;1.40;99.90;;;;;;4950046;29;1984;-59
2023/03/09 06:39:54;;;;;;;;;;;1.40;99.90;;;;;;4954994;29;987;-60
2023/03/09 06:42:20;;;;;;;;;;;1.60;99.90;;;;;;4954980;29;996;-61
2023/03/09 06:44:47;;;;;;;;;;;1.60;99.90;;;;;;4954480;29;1067;-61
2023/03/09 06:47:13;;;;;;;;;;;1.50;99.90;;;;;;4946573;29;1199;-59
2023/03/09 06:49:39;;;;;;;;;;;1.60;99.90;;;;;;4941154;29;1280;-62
2023/03/09 06:52:05;;;;;;;;;;;1.60;99.90;;;;;;4946238;29;1180;-60
2023/03/09 06:54:31;;;;;;;;;;;1.70;99.90;;;;;;4952828;29;1241;-61
2023/03/09 06:56:58;;;;;;;;;;;1.60;99.90;;;;;;4953653;29;1902;-62
2023/03/09 06:59:24;;;;;;;;;;;1.60;99.90;;;;;;4955034;29;1046;-62
2023/03/09 07:01:50;;;;;;;;;;;1.70;99.90;;;;;;4953799;29;1027;-61
2023/03/09 07:04:17;;;;;;;;;;;1.70;99.90;;;;;;4954989;29;980;-60
2023/03/09 07:06:43;;;;;;;;;;;1.70;99.90;;;;;;4945527;28;1131;-62
2023/03/09 07:09:10;;;;;;;;;;;1.70;99.90;;;;;;4935441;29;1048;-62
2023/03/09 07:11:36;;;;;;;;;;;1.70;99.90;;;;;;4935266;29;1168;-59
2023/03/09 07:14:02;;;;;;;;;;;1.80;99.90;;;;;;4935374;29;1056;-62
2023/03/09 07:16:30;;;;;;;;;;;1.80;99.90;;;;;;4940905;29;1155;-63
2023/03/09 07:18:56;;;;;;;;;;;1.70;99.90;;;;;;4953669;28;1985;-62
2023/03/09 07:21:22;;;;;;;;;;;1.80;99.90;;;;;;4954583;29;1007;-61
2023/03/09 07:23:49;;;;;;;;;;;1.80;99.90;;;;;;4953621;29;1047;-63
2023/03/09 07:26:15;;;;;;;;;;;1.80;99.90;;;;;;4949071;28;1140;-62
2023/03/09 07:28:41;;;;;;;;;;;1.80;99.90;;;;;;4935361;29;1007;-63
2023/03/09 07:31:09;;;;;;;;;;;1.80;99.90;;;;;;4940239;29;1600;-60
2023/03/09 07:33:35;;;;;;;;;;;1.80;99.90;;;;;;4943798;29;1377;-62
2023/03/09 07:36:03;;;;;;;;;;;1.90;99.90;;;;;;4941556;29;1373;-64
2023/03/09 07:38:30;;;;;;;;;;;1.90;99.90;;;;;;4944862;29;1887;-62
2023/03/09 07:40:57;;;;;;;;;;;2.00;99.90;;;;;;4942261;28;1989;-60
2023/03/09 07:43:23;;;;;;;;;;;2.10;99.90;;;;;;4947354;29;1329;-62
2023/03/09 07:45:50;;;;;;;;;;;2.20;99.90;;;;;;4950840;29;2960;-61
2023/03/09 07:48:17;;;;;;;;;;;2.40;99.90;;;;;;4950585;29;1968;-63
2023/03/09 07:50:44;;;;;;;;;;;2.20;99.90;;;;;;4931771;29;1114;-63
2023/03/09 07:53:10;;;;;;;;;;;2.20;99.90;;;;;;4939005;29;795;-62
2023/03/09 07:55:36;;;;;;;;;;;2.20;99.90;;;;;;4949152;29;1074;-63
2023/03/09 07:58:03;;;;;;;;;;;2.20;99.90;;;;;;4956519;29;1910;-61
2023/03/09 08:00:29;;;;;;;;;;;2.20;99.90;;;;;;4957659;28;1088;-61
2023/03/09 08:02:56;;;;;;;;;;;2.30;99.90;;;;;;4947619;29;1110;-62
2023/03/09 08:05:22;;;;;;;;;;;2.30;99.90;;;;;;4952228;29;1062;-63
2023/03/09 08:07:49;;;;;;;;;;;2.40;99.90;;;;;;4941047;29;1183;-63
2023/03/09 08:10:16;;;;;;;;;;;2.30;99.90;;;;;;4938062;29;713;-61
2023/03/09 08:12:46;;;;;;;;;;;2.40;99.90;;;;;;4937627;29;1147;-62
2023/03/09 08:15:12;;;;;;;;;;;2.40;99.90;;;;;;4939077;29;999;-62
2023/03/09 08:17:39;;;;;;;;;;;2.50;99.90;;;;;;4953672;29;1966;-61
2023/03/09 08:20:08;;;;;;;;;;;2.60;99.90;;;;;;4947300;28;1041;-60
2023/03/09 08:22:36;;;;;;;;;;;2.60;99.90;;;;;;4948737;29;1172;-61
2023/03/09 08:25:03;;;;;;;;;;;2.70;99.90;;;;;;4957630;28;1051;-62
2023/03/09 08:27:29;;;;;;;;;;;2.80;99.90;;;;;;4943552;29;1108;-61
2023/03/09 08:29:55;;;;;;;;;;;2.90;99.90;;;;;;4937825;29;869;-61
2023/03/09 08:32:23;;;;;;;;;;;2.80;99.90;;;;;;4937656;29;1008;-62
2023/03/09 08:34:53;;;;;;;;;;;2.80;99.90;;;;;;4938402;29;979;-61
2023/03/09 08:37:19;;;;;;;;;;;2.90;99.90;;;;;;4950729;29;1936;-61
2023/03/09 08:39:45;;;;;;;;;;;3.00;99.90;;;;;;4956856;28;957;-62
2023/03/09 08:42:12;;;;;;;;;;;3.00;99.90;;;;;;4957176;29;1759;-62
2023/03/09 08:44:38;;;;;;;;;;;3.10;99.90;;;;;;4955998;29;979;-61
2023/03/09 08:47:04;;;;;;;;;;;3.20;99.90;;;;;;4946854;29;1136;-62
2023/03/09 08:49:30;;;;;;;;;;;3.20;99.90;;;;;;4936515;29;1125;-62
2023/03/09 08:51:56;;;;;;;;;;;3.00;99.90;;;;;;4936701;29;1019;-62
2023/03/09 08:54:23;;;;;;;;;;;3.00;99.90;;;;;;4948167;29;1096;-61
2023/03/09 08:56:49;;;;;;;;;;;3.10;99.90;;;;;;4946291;29;1128;-61
2023/03/09 08:59:15;;;;;;;;;;;3.10;99.90;;;;;;4956568;29;1985;-62
2023/03/09 09:01:41;;;;;;;;;;;3.20;99.90;;;;;;4956893;29;991;-61
2023/03/09 09:04:08;;;;;;;;;;;3.30;99.90;;;;;;4956920;29;936;-61
2023/03/09 09:06:34;;;;;;;;;;;3.30;99.90;;;;;;4950339;28;1159;-63
2023/03/09 09:09:00;;;;;;;;;;;3.30;99.90;;;;;;4937340;29;995;-60
2023/03/09 09:11:26;;;;;;;;;;;3.30;99.90;;;;;;4937473;29;1173;-61
2023/03/09 09:13:54;;;;;;;;;;;3.30;99.90;;;;;;4937574;29;991;-61
2023/03/09 09:16:20;;;;;;;;;;;3.40;99.90;;;;;;4941753;29;1117;-62
2023/03/09 09:18:47;;;;;;;;;;;3.40;99.90;;;;;;4956329;29;1902;-61
2023/03/09 09:21:14;;;;;;;;;;;3.50;99.90;;;;;;4955967;28;1446;-62
2023/03/09 09:23:41;;;;;;;;;;;3.50;99.90;;;;;;4956651;29;1007;-61
2023/03/09 09:26:08;;;;;;;;;;;3.40;99.90;;;;;;4953605;28;1136;-61
2023/03/09 09:28:34;;;;;;;;;;;3.40;99.90;;;;;;4937158;29;1055;-60
2023/03/09 09:31:02;;;;;;;;;;;3.50;99.90;;;;;;4936988;29;1050;-60
2023/03/09 09:33:28;;;;;;;;;;;3.60;99.90;;;;;;4937108;29;1127;-60
2023/03/09 09:35:56;;;;;;;;;;;3.40;99.90;;;;;;4938097;29;1125;-63
2023/03/09 09:38:22;;;;;;;;;;;3.40;99.90;;;;;;4956397;29;1907;-62
2023/03/09 09:40:48;;;;;;;;;;;3.40;99.90;;;;;;4956040;29;912;-61
2023/03/09 09:43:15;;;;;;;;;;;3.30;99.90;;;;;;4956215;29;995;-61
2023/03/09 09:45:43;;;;;;;;;;;3.30;99.90;;;;;;4956443;29;927;-59
2023/03/09 09:48:15;;;;;;;;;;;3.30;99.90;;;;;;4937893;29;1172;-61
2023/03/09 09:50:44;;;;;;;;;;;3.40;99.90;;;;;;4936591;29;1153;-62
2023/03/09 09:53:26;;;;;;;;;;;3.40;99.90;;;;;;4922072;29;1116;-60
2023/03/09 09:55:53;;;;;;;;;;;3.40;99.90;;;;;;4943538;29;1017;-61
2023/03/09 09:58:44;;;;;;;;;;;3.50;99.90;;;;;;4956044;29;1906;-62
2023/03/09 10:01:29;;;;;;;;;;;3.50;99.90;;;;;;4955726;29;1002;-62
2023/03/09 10:04:00;;;;;;;;;;;3.40;99.90;;;;;;4950077;29;1166;-62
2023/03/09 10:06:26;;;;;;;;;;;3.60;99.90;;;;;;4948801;29;1310;-62
2023/03/09 10:08:52;;;;;;;;;;;3.70;99.90;;;;;;4955571;29;1042;-60
2023/03/09 10:11:24;;;;;;;;;;;3.70;99.90;;;;;;4956000;29;1368;-60
2023/03/09 10:14:13;;;;;;;;;;;3.90;99.90;;;;;;4955880;28;777;-61
2023/03/09 10:16:43;;;;;;;;;;;3.90;99.90;;;;;;4943536;29;1770;-61
2023/03/09 10:19:16;;;;;;;;;;;4.00;99.90;;;;;;4935815;29;1903;-60
2023/03/09 10:21:56;;;;;;;;;;;4.00;99.90;;;;;;4937019;29;1147;-60
2023/03/09 10:24:23;;;;;;;;;;;3.90;99.90;;;;;;4936797;29;1075;-60
2023/03/09 10:26:49;;;;;;;;;;;4.00;99.90;;;;;;4941966;29;2517;-60
2023/03/09 10:29:23;;;;;;;;;;;4.10;99.90;;;;;;4936149;29;1075;-60
2023/03/09 10:31:55;;;;;;;;;;;4.10;99.90;;;;;;4936668;29;985;-61
2023/03/09 10:34:24;;;;;;;;;;;4.10;99.90;;;;;;4936697;29;1004;-59
2023/03/09 10:36:55;;;;;;;;;;;3.90;99.90;;;;;;4944542;29;1155;-60
2023/03/09 10:39:22;;;;;;;;;;;3.90;99.90;;;;;;4955189;29;1975;-60
2023/03/09 10:41:48;;;;;;;;;;;3.90;99.90;;;;;;4955860;29;882;-61
2023/03/09 10:44:17;;;;;;;;;;;4.10;99.90;;;;;;4955706;29;1095;-61
2023/03/09 10:47:00;;;;;;;;;;;4.10;99.90;;;;;;4947888;29;1184;-61
2023/03/09 10:49:27;;;;;;;;;;;4.10;99.90;;;;;;4936094;29;1150;-61
2023/03/09 10:52:00;;;;;;;;;;;4.00;99.90;;;;;;4936370;29;1003;-59
2023/03/09 10:54:29;;;;;;;;;;;4.20;99.90;;;;;;4946511;29;1033;-61
2023/03/09 10:56:55;;;;;;;;;;;4.10;99.90;;;;;;4944378;29;1144;-61
2023/03/09 10:59:22;;;;;;;;;;;4.10;99.90;;;;;;4955043;29;1911;-60
2023/03/09 11:01:51;;;;;;;;;;;4.00;99.90;;;;;;4939716;29;1541;-62
2023/03/09 11:04:25;;;;;;;;;;;4.00;99.90;;;;;;4933293;29;900;-61
2023/03/09 11:06:52;;;;;;;;;;;3.90;99.90;;;;;;4943806;29;1132;-61
2023/03/09 11:09:21;;;;;;;;;;;4.00;99.90;;;;;;4954255;29;1019;-62
2023/03/09 11:11:48;;;;;;;;;;;4.00;99.90;;;;;;4947313;29;1434;-62
2023/03/09 11:14:20;;;;;;;;;;;4.10;99.90;;;;;;4948359;29;1365;-61
2023/03/09 11:16:50;;;;;;;;;;;4.10;99.90;;;;;;4953849;28;1620;-62
2023/03/09 11:19:17;;;;;;;;;;;4.20;99.90;;;;;;4947519;29;1906;-61
2023/03/09 11:21:51;;;;;;;;;;;4.10;99.90;;;;;;4955823;29;1335;-61
2023/03/09 11:24:18;;;;;;;;;;;4.20;99.90;;;;;;4958148;29;904;-62
2023/03/09 11:26:47;;;;;;;;;;;4.30;99.90;;;;;;4957385;29;1238;-62
2023/03/09 11:29:19;;;;;;;;;;;4.40;99.90;;;;;;4957538;29;1058;-60
2023/03/09 11:31:45;;;;;;;;;;;4.40;99.90;;;;;;4958155;29;987;-61
2023/03/09 11:34:34;;;;;;;;;;;4.40;99.90;;;;;;4958257;29;988;-61
2023/03/09 11:37:16;;;;;;;;;;;4.50;99.90;;;;;;4943607;29;2047;-60
2023/03/09 11:39:46;;;;;;;;;;;4.50;99.90;;;;;;4938449;29;1981;-59
2023/03/09 11:42:15;;;;;;;;;;;4.70;99.90;;;;;;4938948;29;996;-62
2023/03/09 11:44:44;;;;;;;;;;;4.50;99.90;;;;;;4938794;29;1016;-61
2023/03/09 11:47:25;;;;;;;;;;;4.70;99.90;;;;;;4948430;29;1188;-60
2023/03/09 11:49:53;;;;;;;;;;;4.60;99.90;;;;;;4957350;28;1046;-60
2023/03/09 11:52:24;;;;;;;;;;;4.60;99.90;;;;;;4957488;29;805;-60
2023/03/09 11:54:52;;;;;;;;;;;4.50;99.90;;;;;;4957458;29;1059;-60
2023/03/09 11:57:20;;;;;;;;;;;4.60;99.90;;;;;;4946376;28;1208;-61
2023/03/09 11:59:53;;;;;;;;;;;4.60;99.90;;;;;;4937930;29;1980;-62
2023/03/09 12:02:31;;;;;;;;;;;4.50;99.90;;;;;;4938390;29;960;-60
2023/03/09 12:04:58;;;;;;;;;;;4.60;99.90;;;;;;4938260;29;911;-59
2023/03/09 12:07:28;;;;;;;;;;;4.60;99.90;;;;;;4949767;29;1144;-59
2023/03/09 12:10:12;;;;;;;;;;;4.40;99.90;;;;;;4956635;29;1815;-61
2023/03/09 12:12:45;;;;;;;;;;;4.50;99.90;;;;;;4957043;29;1211;-60
2023/03/09 12:15:14;;;;;;;;;;;4.50;99.90;;;;;;4957313;29;1065;-59
2023/03/09 12:18:00;;;;;;;;;;;4.40;99.90;;;;;;4942631;29;1967;-60
2023/03/09 12:20:34;;;;;;;;;;;4.30;99.90;;;;;;4937712;29;915;-59
2023/03/09 12:23:00;;;;;;;;;;;4.40;99.90;;;;;;4937043;29;980;-59
2023/03/09 12:25:27;;;;;;;;;;;4.40;99.90;;;;;;4937997;29;947;-59
2023/03/09 12:27:54;;;;;;;;;;;4.60;99.90;;;;;;4951914;28;1152;-62
2023/03/09 12:30:25;;;;;;;;;;;4.60;99.90;;;;;;4956520;28;1069;-61
2023/03/09 12:32:51;;;;;;;;;;;4.80;99.90;;;;;;4956994;28;1019;-61
2023/03/09 12:35:21;;;;;;;;;;;4.80;99.90;;;;;;4956911;28;1035;-61
2023/03/09 12:37:53;;;;;;;;;;;4.70;99.90;;;;;;4942042;29;2072;-61
2023/03/09 12:40:25;;;;;;;;;;;4.70;99.90;;;;;;4936996;29;964;-61
2023/03/09 12:42:53;;;;;;;;;;;4.70;99.90;;;;;;4936358;29;1306;-61
2023/03/09 12:45:22;;;;;;;;;;;4.50;99.90;;;;;;4936035;29;1358;-60
2023/03/09 12:47:50;;;;;;;;;;;4.60;99.90;;;;;;4951742;29;1247;-60
2023/03/09 12:50:19;;;;;;;;;;;4.50;99.90;;;;;;4956106;29;1019;-61
2023/03/09 12:52:54;;;;;;;;;;;4.60;99.90;;;;;;4956593;29;972;-62
2023/03/09 12:55:23;;;;;;;;;;;4.40;99.90;;;;;;4956528;29;996;-61
2023/03/09 12:57:50;;;;;;;;;;;4.50;99.90;;;;;;4941542;29;1903;-59
2023/03/09 13:00:21;;;;;;;;;;;4.50;99.90;;;;;;4936734;29;1052;-57
2023/03/09 13:02:53;;;;;;;;;;;4.40;99.90;;;;;;4937041;29;1119;-59
2023/03/09 13:05:39;;;;;;;;;;;4.30;99.90;;;;;;4936000;29;1012;-59
2023/03/09 13:08:16;;;;;;;;;;;4.40;99.90;;;;;;4953444;29;1164;-59
2023/03/09 13:10:43;;;;;;;;;;;4.40;99.90;;;;;;4955528;29;1800;-59
2023/03/09 13:13:28;;;;;;;;;;;4.50;99.90;;;;;;4956506;28;983;-59
2023/03/09 13:16:13;;;;;;;;;;;4.40;99.90;;;;;;4955969;29;984;-59
2023/03/09 13:18:39;;;;;;;;;;;4.40;99.90;;;;;;4936709;29;1911;-59
2023/03/09 13:21:25;;;;;;;;;;;4.40;99.90;;;;;;4936979;29;1043;-60
2023/03/09 13:23:51;;;;;;;;;;;4.40;99.90;;;;;;4936925;29;1371;-59
2023/03/09 13:26:18;;;;;;;;;;;4.40;99.90;;;;;;4938739;29;1173;-60
2023/03/09 13:28:46;;;;;;;;;;;4.30;99.90;;;;;;4954538;29;956;-62
2023/03/09 13:31:26;;;;;;;;;;;4.40;99.90;;;;;;4955920;28;1011;-61
2023/03/09 13:33:52;;;;;;;;;;;4.30;99.90;;;;;;4955874;29;1066;-60
2023/03/09 13:36:22;;;;;;;;;;;4.20;99.90;;;;;;4953607;29;1183;-61
2023/03/09 13:38:52;;;;;;;;;;;4.20;99.90;;;;;;4936111;29;1960;-61
2023/03/09 13:41:23;;;;;;;;;;;4.20;99.90;;;;;;4936495;29;960;-61
2023/03/09 13:43:53;;;;;;;;;;;4.10;99.90;;;;;;4936444;29;1063;-61
2023/03/09 13:46:24;;;;;;;;;;;4.10;99.90;;;;;;4937387;29;1192;-61
2023/03/09 13:48:53;;;;;;;;;;;4.20;99.90;;;;;;4955267;28;919;-59
2023/03/09 13:51:23;;;;;;;;;;;4.00;99.90;;;;;;4955490;28;995;-61
2023/03/09 13:53:49;;;;;;;;;;;4.00;99.90;;;;;;4955476;29;804;-61
2023/03/09 13:56:15;;;;;;;;;;;4.10;99.90;;;;;;4953554;29;1203;-61
2023/03/09 13:58:44;;;;;;;;;;;4.10;99.90;;;;;;4936156;29;1915;-62
2023/03/09 14:01:29;;;;;;;;;;;4.20;99.90;;;;;;4936334;29;1022;-62
2023/03/09 14:03:56;;;;;;;;;;;4.10;99.90;;;;;;4935901;29;1092;-61
2023/03/09 14:06:28;;;;;;;;;;;4.20;99.90;;;;;;4936470;29;1195;-61
2023/03/09 14:08:56;;;;;;;;;;;4.20;99.90;;;;;;4935570;29;1051;-60
2023/03/09 14:11:26;;;;;;;;;;;4.20;99.90;;;;;;4935774;29;1368;-61
2023/03/09 14:14:00;;;;;;;;;;;4.20;99.90;;;;;;4934881;29;1019;-61
2023/03/09 14:16:27;;;;;;;;;;;4.10;99.90;;;;;;4938621;29;1117;-62
2023/03/09 14:18:54;;;;;;;;;;;3.90;99.90;;;;;;4954291;28;1914;-61
2023/03/09 14:21:20;;;;;;;;;;;4.00;99.90;;;;;;4955188;29;784;-59
2023/03/09 14:23:46;;;;;;;;;;;3.90;99.90;;;;;;4955031;29;797;-58
2023/03/09 14:26:21;;;;;;;;;;;4.00;99.90;;;;;;4954047;28;1285;-62
2023/03/09 14:29:05;;;;;;;;;;;3.90;99.90;;;;;;4935662;29;1023;-60
2023/03/09 14:31:31;;;;;;;;;;;3.80;99.90;;;;;;4935654;29;1047;-58
2023/03/09 14:33:57;;;;;;;;;;;3.90;99.90;;;;;;4935960;29;940;-60
2023/03/09 14:36:23;;;;;;;;;;;3.90;99.90;;;;;;4937043;29;1511;-59
2023/03/09 14:38:51;;;;;;;;;;;3.90;99.90;;;;;;4954382;29;1969;-62
2023/03/09 14:41:22;;;;;;;;;;;3.80;99.90;;;;;;4955033;29;941;-61
2023/03/09 14:43:48;;;;;;;;;;;3.80;99.90;;;;;;4955178;28;999;-60
2023/03/09 14:46:17;;;;;;;;;;;3.80;99.90;;;;;;4953676;28;1148;-61
2023/03/09 14:48:47;;;;;;;;;;;3.80;99.90;;;;;;4935214;29;1062;-61
2023/03/09 14:51:16;;;;;;;;;;;3.80;99.90;;;;;;4937956;29;1078;-62